sensor_id;sensor_type;location;lat;lon;timestamp;pressure;altitude;pressure_sealevel;temperature;humidity
32873;BME280;19224;52.462;16.898;2024-03-22T00:01:54;100632.84;;;10.90;100.00
32873;BME280;19224;52.462;16.898;2024-03-22T00:04:26;100637.80;;;10.79;100.00
32873;BME280;19224;52.462;16.898;2024-03-22T00:06:56;100646.41;;;10.65;100.00
32873;BME280;19224;52.462;16.898;2024-03-22T00:09:26;100648.39;;;10.60;100.00
32873;BME280;19224;52.462;16.898;2024-03-22T00:12:17;100647.25;;;10.56;100.00
32873;BME280;19224;52.462;16.898;2024-03-22T00:14:47;100637.21;;;10.59;100.00
32873;BME280;19224;52.462;16.898;2024-03-22T00:17:20;100644.66;;;10.53;100.00
32873;BME280;19224;52.462;16.898;2024-03-22T00:19:50;100638.27;;;10.44;100.00
32873;BME280;19224;52.462;16.898;2024-03-22T00:22:21;100630.73;;;10.42;100.00
32873;BME280;19224;52.462;16.898;2024-03-22T00:24:51;100626.69;;;10.42;100.00
32873;BME280;19224;52.462;16.898;2024-03-22T00:27:21;100613.94;;;10.35;100.00
32873;BME280;19224;52.462;16.898;2024-03-22T00:29:51;100619.09;;;10.30;100.00
32873;BME280;19224;52.462;16.898;2024-03-22T00:32:22;100617.19;;;10.22;100.00
32873;BME280;19224;52.462;16.898;2024-03-22T00:34:52;100611.02;;;10.30;100.00
32873;BME280;19224;52.462;16.898;2024-03-22T00:37:22;100612.70;;;10.21;100.00
32873;BME280;19224;52.462;16.898;2024-03-22T00:39:53;100600.91;;;10.25;100.00
32873;BME280;19224;52.462;16.898;2024-03-22T00:42:23;100606.52;;;10.19;100.00
32873;BME280;19224;52.462;16.898;2024-03-22T00:44:54;100602.47;;;10.19;100.00
32873;BME280;19224;52.462;16.898;2024-03-22T00:47:26;100618.00;;;10.24;100.00
32873;BME280;19224;52.462;16.898;2024-03-22T00:49:56;100607.41;;;10.19;100.00
32873;BME280;19224;52.462;16.898;2024-03-22T00:52:26;100616.41;;;10.30;100.00
32873;BME280;19224;52.462;16.898;2024-03-22T00:54:56;100612.36;;;10.30;100.00
32873;BME280;19224;52.462;16.898;2024-03-22T00:57:27;100613.43;;;10.26;100.00
32873;BME280;19224;52.462;16.898;2024-03-22T00:59:57;100612.61;;;10.24;100.00
32873;BME280;19224;52.462;16.898;2024-03-22T01:02:27;100610.33;;;10.25;100.00
32873;BME280;19224;52.462;16.898;2024-03-22T01:04:58;100612.70;;;10.21;100.00
32873;BME280;19224;52.462;16.898;2024-03-22T01:07:28;100613.65;;;10.20;100.00
32873;BME280;19224;52.462;16.898;2024-03-22T01:09:58;100605.35;;;10.26;100.00
32873;BME280;19224;52.462;16.898;2024-03-22T01:12:28;100607.98;;;10.16;100.00
32873;BME280;19224;52.462;16.898;2024-03-22T01:14:59;100603.59;;;10.13;100.00
32873;BME280;19224;52.462;16.898;2024-03-22T01:17:29;100607.28;;;9.98;100.00
32873;BME280;19224;52.462;16.898;2024-03-22T01:19:59;100612.27;;;9.97;100.00
32873;BME280;19224;52.462;16.898;2024-03-22T01:22:29;100608.81;;;10.06;100.00
32873;BME280;19224;52.462;16.898;2024-03-22T01:25:00;100609.27;;;10.06;100.00
32873;BME280;19224;52.462;16.898;2024-03-22T01:27:30;100608.91;;;10.03;100.00
32873;BME280;19224;52.462;16.898;2024-03-22T01:30:00;100608.86;;;10.05;100.00
32873;BME280;19224;52.462;16.898;2024-03-22T01:32:31;100619.58;;;10.06;100.00
32873;BME280;19224;52.462;16.898;2024-03-22T01:35:01;100610.38;;;9.99;100.00
32873;BME280;19224;52.462;16.898;2024-03-22T01:37:31;100612.36;;;10.07;100.00
32873;BME280;19224;52.462;16.898;2024-03-22T01:40:03;100612.36;;;10.07;100.00
32873;BME280;19224;52.462;16.898;2024-03-22T01:42:37;100615.72;;;10.00;100.00
32873;BME280;19224;52.462;16.898;2024-03-22T01:45:08;100603.07;;;10.04;100.00
32873;BME280;19224;52.462;16.898;2024-03-22T01:47:38;100611.69;;;10.00;100.00
32873;BME280;19224;52.462;16.898;2024-03-22T01:50:09;100609.89;;;10.01;100.00
32873;BME280;19224;52.462;16.898;2024-03-22T01:52:41;100619.22;;;10.04;100.00
32873;BME280;19224;52.462;16.898;2024-03-22T01:55:11;100613.08;;;9.99;100.00
32873;BME280;19224;52.462;16.898;2024-03-22T01:57:43;100609.24;;;9.94;100.00
32873;BME280;19224;52.462;16.898;2024-03-22T02:00:14;100611.73;;;9.99;100.00
32873;BME280;19224;52.462;16.898;2024-03-22T02:02:44;100614.55;;;9.96;100.00
32873;BME280;19224;52.462;16.898;2024-03-22T02:05:17;100609.41;;;9.90;100.00
32873;BME280;19224;52.462;16.898;2024-03-22T02:07:52;100606.88;;;9.85;100.00
32873;BME280;19224;52.462;16.898;2024-03-22T02:10:25;100599.80;;;9.83;100.00
32873;BME280;19224;52.462;16.898;2024-03-22T02:12:55;100600.61;;;9.73;100.00
32873;BME280;19224;52.462;16.898;2024-03-22T02:15:26;100589.25;;;9.77;100.00
32873;BME280;19224;52.462;16.898;2024-03-22T02:17:56;100592.59;;;9.72;100.00
32873;BME280;19224;52.462;16.898;2024-03-22T02:20:26;100587.66;;;9.60;100.00
32873;BME280;19224;52.462;16.898;2024-03-22T02:22:56;100585.74;;;9.63;100.00
32873;BME280;19224;52.462;16.898;2024-03-22T02:25:27;100594.98;;;9.68;100.00
32873;BME280;19224;52.462;16.898;2024-03-22T02:27:57;100584.11;;;9.71;100.00
32873;BME280;19224;52.462;16.898;2024-03-22T02:30:27;100580.36;;;9.75;100.00
32873;BME280;19224;52.462;16.898;2024-03-22T02:32:57;100577.59;;;9.65;100.00
32873;BME280;19224;52.462;16.898;2024-03-22T02:35:28;100580.24;;;9.66;100.00
32873;BME280;19224;52.462;16.898;2024-03-22T02:37:58;100585.25;;;9.64;100.00
32873;BME280;19224;52.462;16.898;2024-03-22T02:40:28;100584.20;;;9.56;100.00
32873;BME280;19224;52.462;16.898;2024-03-22T02:42:59;100578.85;;;9.43;100.00
32873;BME280;19224;52.462;16.898;2024-03-22T02:45:31;100583.41;;;9.42;100.00
32873;BME280;19224;52.462;16.898;2024-03-22T02:48:02;100579.83;;;9.41;100.00
32873;BME280;19224;52.462;16.898;2024-03-22T02:50:36;100575.78;;;9.30;100.00
32873;BME280;19224;52.462;16.898;2024-03-22T02:53:07;100578.60;;;9.38;100.00
32873;BME280;19224;52.462;16.898;2024-03-22T02:55:39;100574.94;;;9.41;100.00
32873;BME280;19224;52.462;16.898;2024-03-22T02:58:10;100570.91;;;9.41;100.00
32873;BME280;19224;52.462;16.898;2024-03-22T03:00:40;100576.19;;;9.31;100.00
32873;BME280;19224;52.462;16.898;2024-03-22T03:03:12;100567.64;;;9.31;100.00
32873;BME280;19224;52.462;16.898;2024-03-22T03:05:43;100574.57;;;9.38;100.00
32873;BME280;19224;52.462;16.898;2024-03-22T03:08:13;100574.71;;;9.22;100.00
32873;BME280;19224;52.462;16.898;2024-03-22T03:10:44;100570.58;;;9.37;100.00
32873;BME280;19224;52.462;16.898;2024-03-22T03:13:15;100581.23;;;9.27;100.00
32873;BME280;19224;52.462;16.898;2024-03-22T03:15:45;100584.62;;;9.33;100.00
32873;BME280;19224;52.462;16.898;2024-03-22T03:18:15;100577.85;;;9.22;100.00
32873;BME280;19224;52.462;16.898;2024-03-22T03:20:45;100583.27;;;9.20;100.00
32873;BME280;19224;52.462;16.898;2024-03-22T03:23:17;100580.13;;;9.21;100.00
32873;BME280;19224;52.462;16.898;2024-03-22T03:25:47;100577.19;;;9.15;100.00
32873;BME280;19224;52.462;16.898;2024-03-22T03:28:17;100568.64;;;9.16;100.00
32873;BME280;19224;52.462;16.898;2024-03-22T03:30:48;100579.72;;;9.20;100.00
32873;BME280;19224;52.462;16.898;2024-03-22T03:33:19;100585.86;;;9.10;100.00
32873;BME280;19224;52.462;16.898;2024-03-22T03:35:49;100577.80;;;8.97;100.00
32873;BME280;19224;52.462;16.898;2024-03-22T03:38:19;100580.48;;;9.10;100.00
32873;BME280;19224;52.462;16.898;2024-03-22T03:40:50;100593.05;;;9.10;100.00
32873;BME280;19224;52.462;16.898;2024-03-22T03:43:23;100582.20;;;9.13;100.00
32873;BME280;19224;52.462;16.898;2024-03-22T03:45:54;100579.87;;;9.15;100.00
32873;BME280;19224;52.462;16.898;2024-03-22T03:48:25;100572.79;;;9.13;100.00
32873;BME280;19224;52.462;16.898;2024-03-22T03:50:56;100575.32;;;9.17;100.00
32873;BME280;19224;52.462;16.898;2024-03-22T03:53:28;100575.18;;;9.09;100.00
32873;BME280;19224;52.462;16.898;2024-03-22T03:55:59;100580.24;;;9.18;100.00
32873;BME280;19224;52.462;16.898;2024-03-22T03:58:29;100579.76;;;9.18;100.00
32873;BME280;19224;52.462;16.898;2024-03-22T04:01:04;100583.27;;;9.20;100.00
32873;BME280;19224;52.462;16.898;2024-03-22T04:03:31;100585.86;;;9.10;100.00
32873;BME280;19224;52.462;16.898;2024-03-22T04:06:02;100588.05;;;9.12;100.00
32873;BME280;19224;52.462;16.898;2024-03-22T04:08:33;100583.27;;;9.20;100.00
32873;BME280;19224;52.462;16.898;2024-03-22T04:11:03;100577.71;;;9.13;100.00
32873;BME280;19224;52.462;16.898;2024-03-22T04:13:34;100593.20;;;9.05;100.00
32873;BME280;19224;52.462;16.898;2024-03-22T04:16:07;100581.33;;;9.12;100.00
32873;BME280;19224;52.462;16.898;2024-03-22T04:18:37;100580.08;;;8.96;100.00
32873;BME280;19224;52.462;16.898;2024-03-22T04:21:08;100579.14;;;9.10;100.00
32873;BME280;19224;52.462;16.898;2024-03-22T04:23:38;100583.80;;;9.05;100.00
32873;BME280;19224;52.462;16.898;2024-03-22T04:26:08;100581.98;;;8.93;100.00
32873;BME280;19224;52.462;16.898;2024-03-22T04:28:38;100583.66;;;8.97;100.00
32873;BME280;19224;52.462;16.898;2024-03-22T04:31:10;100572.91;;;9.10;100.00
32873;BME280;19224;52.462;16.898;2024-03-22T04:33:40;100562.20;;;9.08;100.00
32873;BME280;19224;52.462;16.898;2024-03-22T04:36:10;100562.37;;;9.17;100.00
32873;BME280;19224;52.462;16.898;2024-03-22T04:38:40;100564.84;;;9.10;100.00
32873;BME280;19224;52.462;16.898;2024-03-22T04:41:11;100561.88;;;9.17;100.00
32873;BME280;19224;52.462;16.898;2024-03-22T04:43:41;100560.97;;;9.05;100.00
32873;BME280;19224;52.462;16.898;2024-03-22T04:46:12;100554.66;;;9.06;100.00
32873;BME280;19224;52.462;16.898;2024-03-22T04:48:42;100557.05;;;9.02;100.00
32873;BME280;19224;52.462;16.898;2024-03-22T04:51:12;100561.61;;;9.00;100.00
32873;BME280;19224;52.462;16.898;2024-03-22T04:53:43;100551.83;;;8.98;100.00
32873;BME280;19224;52.462;16.898;2024-03-22T04:56:13;100554.81;;;9.02;100.00
32873;BME280;19224;52.462;16.898;2024-03-22T04:58:44;100556.43;;;8.94;100.00
32873;BME280;19224;52.462;16.898;2024-03-22T05:01:14;100547.53;;;9.05;100.00
32873;BME280;19224;52.462;16.898;2024-03-22T05:03:44;100545.26;;;9.06;100.00
32873;BME280;19224;52.462;16.898;2024-03-22T05:06:15;100554.47;;;9.12;100.00
32873;BME280;19224;52.462;16.898;2024-03-22T05:08:45;100549.17;;;9.09;100.00
32873;BME280;19224;52.462;16.898;2024-03-22T05:11:15;100544.64;;;8.98;100.00
32873;BME280;19224;52.462;16.898;2024-03-22T05:13:45;100543.50;;;9.05;100.00
32873;BME280;19224;52.462;16.898;2024-03-22T05:16:16;100538.27;;;8.89;100.00
32873;BME280;19224;52.462;16.898;2024-03-22T05:18:47;100536.44;;;8.90;100.00
32873;BME280;19224;52.462;16.898;2024-03-22T05:21:17;100542.16;;;9.05;100.00
32873;BME280;19224;52.462;16.898;2024-03-22T05:23:47;100540.62;;;9.11;100.00
32873;BME280;19224;52.462;16.898;2024-03-22T05:26:18;100533.55;;;9.20;100.00
32873;BME280;19224;52.462;16.898;2024-03-22T05:28:49;100536.86;;;9.28;100.00
32873;BME280;19224;52.462;16.898;2024-03-22T05:31:20;100533.73;;;9.03;100.00
32873;BME280;19224;52.462;16.898;2024-03-22T05:33:51;100533.20;;;9.05;100.00
32873;BME280;19224;52.462;16.898;2024-03-22T05:36:21;100531.03;;;9.29;100.00
32873;BME280;19224;52.462;16.898;2024-03-22T05:38:52;100529.52;;;9.33;100.00
32873;BME280;19224;52.462;16.898;2024-03-22T05:41:22;100529.69;;;9.40;100.00
32873;BME280;19224;52.462;16.898;2024-03-22T05:43:52;100527.73;;;9.45;100.00
32873;BME280;19224;52.462;16.898;2024-03-22T05:46:22;100529.20;;;9.53;100.00
32873;BME280;19224;52.462;16.898;2024-03-22T05:48:52;100532.34;;;9.42;100.00
32873;BME280;19224;52.462;16.898;2024-03-22T05:51:23;100532.05;;;9.49;100.00
32873;BME280;19224;52.462;16.898;2024-03-22T05:53:54;100531.12;;;9.50;100.00
32873;BME280;19224;52.462;16.898;2024-03-22T05:56:24;100527.20;;;9.58;100.00
32873;BME280;19224;52.462;16.898;2024-03-22T05:58:56;100539.47;;;9.54;100.00
32873;BME280;19224;52.462;16.898;2024-03-22T06:01:27;100538.53;;;9.55;100.00
32873;BME280;19224;52.462;16.898;2024-03-22T06:03:57;100539.83;;;9.45;100.00
32873;BME280;19224;52.462;16.898;2024-03-22T06:06:28;100541.91;;;9.37;100.00
32873;BME280;19224;52.462;16.898;2024-03-22T06:08:59;100534.73;;;9.25;100.00
32873;BME280;19224;52.462;16.898;2024-03-22T06:11:33;100521.63;;;9.16;100.00
32873;BME280;19224;52.462;16.898;2024-03-22T06:14:04;100529.08;;;9.32;100.00
32873;BME280;19224;52.462;16.898;2024-03-22T06:16:34;100524.44;;;9.37;100.00
32873;BME280;19224;52.462;16.898;2024-03-22T06:19:04;100524.76;;;9.52;100.00
32873;BME280;19224;52.462;16.898;2024-03-22T06:21:34;100520.31;;;9.63;100.00
32873;BME280;19224;52.462;16.898;2024-03-22T06:24:05;100510.83;;;9.53;100.00
32873;BME280;19224;52.462;16.898;2024-03-22T06:26:36;100515.42;;;9.62;100.00
32873;BME280;19224;52.462;16.898;2024-03-22T06:29:06;100516.28;;;9.86;100.00
32873;BME280;19224;52.462;16.898;2024-03-22T06:31:37;100505.99;;;9.74;100.00
32873;BME280;19224;52.462;16.898;2024-03-22T06:34:07;100503.43;;;9.71;100.00
32873;BME280;19224;52.462;16.898;2024-03-22T06:36:38;100511.64;;;9.55;100.00
32873;BME280;19224;52.462;16.898;2024-03-22T06:39:08;100510.62;;;9.59;100.00
32873;BME280;19224;52.462;16.898;2024-03-22T06:41:39;100503.43;;;9.71;100.00
32873;BME280;19224;52.462;16.898;2024-03-22T06:44:09;100508.70;;;9.85;100.00
32873;BME280;19224;52.462;16.898;2024-03-22T06:46:41;100509.28;;;9.82;100.00
32873;BME280;19224;52.462;16.898;2024-03-22T06:49:11;100510.09;;;9.84;100.00
32873;BME280;19224;52.462;16.898;2024-03-22T06:51:44;100504.54;;;10.00;100.00
32873;BME280;19224;52.462;16.898;2024-03-22T06:54:14;100505.04;;;9.98;100.00
32873;BME280;19224;52.462;16.898;2024-03-22T06:56:44;100494.19;;;10.01;100.00
32873;BME280;19224;52.462;16.898;2024-03-22T06:59:15;100490.00;;;10.05;100.00
32873;BME280;19224;52.462;16.898;2024-03-22T07:01:45;100483.20;;;10.07;100.00
32873;BME280;19224;52.462;16.898;2024-03-22T07:04:15;100483.02;;;10.11;100.00
32873;BME280;19224;52.462;16.898;2024-03-22T07:06:45;100481.59;;;10.01;100.00
32873;BME280;19224;52.462;16.898;2024-03-22T07:09:16;100478.88;;;10.03;100.00
32873;BME280;19224;52.462;16.898;2024-03-22T07:11:46;100484.18;;;10.16;100.00
32873;BME280;19224;52.462;16.898;2024-03-22T07:14:17;100481.31;;;10.20;100.00
32873;BME280;19224;52.462;16.898;2024-03-22T07:16:47;100482.56;;;10.33;100.00
32873;BME280;19224;52.462;16.898;2024-03-22T07:19:17;100479.28;;;10.37;100.00
32873;BME280;19224;52.462;16.898;2024-03-22T07:21:48;100471.88;;;10.42;100.00
32873;BME280;19224;52.462;16.898;2024-03-22T07:24:18;100473.25;;;10.52;100.00
32873;BME280;19224;52.462;16.898;2024-03-22T07:26:51;100473.00;;;10.58;100.00
32873;BME280;19224;52.462;16.898;2024-03-22T07:29:22;100465.70;;;10.50;100.00
32873;BME280;19224;52.462;16.898;2024-03-22T07:31:52;100464.50;;;10.47;100.00
32873;BME280;19224;52.462;16.898;2024-03-22T07:34:22;100464.22;;;10.53;100.00
32873;BME280;19224;52.462;16.898;2024-03-22T07:36:53;100461.13;;;10.52;100.00
32873;BME280;19224;52.462;16.898;2024-03-22T07:39:23;100464.22;;;10.53;100.00
32873;BME280;19224;52.462;16.898;2024-03-22T07:41:53;100456.46;;;10.67;100.00
32873;BME280;19224;52.462;16.898;2024-03-22T07:44:23;100458.45;;;10.62;100.00
32873;BME280;19224;52.462;16.898;2024-03-22T07:46:55;100460.03;;;10.77;100.00
32873;BME280;19224;52.462;16.898;2024-03-22T07:49:25;100453.77;;;10.67;100.00
32873;BME280;19224;52.462;16.898;2024-03-22T07:51:55;100441.84;;;10.62;100.00
32873;BME280;19224;52.462;16.898;2024-03-22T07:54:26;100444.53;;;10.82;100.00
32873;BME280;19224;52.462;16.898;2024-03-22T07:56:56;100448.56;;;10.82;100.00
32873;BME280;19224;52.462;16.898;2024-03-22T07:59:26;100443.68;;;10.92;100.00
32873;BME280;19224;52.462;16.898;2024-03-22T08:01:57;100443.59;;;10.93;100.00
32873;BME280;19224;52.462;16.898;2024-03-22T08:04:27;100441.50;;;11.10;100.00
32873;BME280;19224;52.462;16.898;2024-03-22T08:06:57;100434.50;;;10.96;100.00
32873;BME280;19224;52.462;16.898;2024-03-22T08:09:28;100429.66;;;11.04;100.00
32873;BME280;19224;52.462;16.898;2024-03-22T08:11:58;100433.30;;;10.83;100.00
32873;BME280;19224;52.462;16.898;2024-03-22T08:14:28;100425.88;;;11.08;100.00
32873;BME280;19224;52.462;16.898;2024-03-22T08:16:58;100428.86;;;11.12;100.00
32873;BME280;19224;52.462;16.898;2024-03-22T08:19:29;100436.09;;;11.20;100.00
32873;BME280;19224;52.462;16.898;2024-03-22T08:21:59;100429.95;;;11.26;100.00
32873;BME280;19224;52.462;16.898;2024-03-22T08:24:29;100425.84;;;11.38;100.00
32873;BME280;19224;52.462;16.898;2024-03-22T08:27:00;100432.84;;;11.32;100.00
32873;BME280;19224;52.462;16.898;2024-03-22T08:29:30;100435.90;;;11.24;100.00
32873;BME280;19224;52.462;16.898;2024-03-22T08:32:00;100432.61;;;11.18;100.00
32873;BME280;19224;52.462;16.898;2024-03-22T08:34:32;100428.81;;;11.22;100.00
32873;BME280;19224;52.462;16.898;2024-03-22T08:37:03;100430.20;;;11.12;100.00
32873;BME280;19224;52.462;16.898;2024-03-22T08:39:39;100426.47;;;11.14;100.00
32873;BME280;19224;52.462;16.898;2024-03-22T08:42:05;100424.28;;;11.42;100.00
32873;BME280;19224;52.462;16.898;2024-03-22T08:44:36;100410.59;;;11.47;100.00
32873;BME280;19224;52.462;16.898;2024-03-22T08:47:06;100412.48;;;11.45;100.00
32873;BME280;19224;52.462;16.898;2024-03-22T08:49:36;100412.03;;;11.54;100.00
32873;BME280;19224;52.462;16.898;2024-03-22T08:52:07;100407.14;;;11.63;100.00
32873;BME280;19224;52.462;16.898;2024-03-22T08:54:37;100405.70;;;11.65;100.00
32873;BME280;19224;52.462;16.898;2024-03-22T08:57:08;100403.48;;;11.64;100.00
32873;BME280;19224;52.462;16.898;2024-03-22T08:59:38;100395.42;;;11.73;100.00
32873;BME280;19224;52.462;16.898;2024-03-22T09:02:09;100396.58;;;11.86;100.00
32873;BME280;19224;52.462;16.898;2024-03-22T09:04:40;100390.00;;;11.64;100.00
32873;BME280;19224;52.462;16.898;2024-03-22T09:07:10;100381.47;;;11.73;100.00
32873;BME280;19224;52.462;16.898;2024-03-22T09:09:40;100368.87;;;12.09;100.00
32873;BME280;19224;52.462;16.898;2024-03-22T09:12:11;100369.31;;;12.35;100.00
32873;BME280;19224;52.462;16.898;2024-03-22T09:14:41;100365.95;;;12.30;100.00
32873;BME280;19224;52.462;16.898;2024-03-22T09:17:12;100366.22;;;12.43;100.00
32873;BME280;19224;52.462;16.898;2024-03-22T09:19:42;100358.97;;;12.43;100.00
32873;BME280;19224;52.462;16.898;2024-03-22T09:22:13;100348.66;;;12.51;100.00
32873;BME280;19224;52.462;16.898;2024-03-22T09:24:43;100347.53;;;12.47;100.00
32873;BME280;19224;52.462;16.898;2024-03-22T09:27:14;100352.06;;;12.63;100.00
32873;BME280;19224;52.462;16.898;2024-03-22T09:29:44;100348.09;;;12.53;100.00
32873;BME280;19224;52.462;16.898;2024-03-22T09:32:15;100344.83;;;12.47;100.00
32873;BME280;19224;52.462;16.898;2024-03-22T09:34:45;100340.64;;;12.58;100.00
32873;BME280;19224;52.462;16.898;2024-03-22T09:37:17;100341.17;;;12.48;100.00
32873;BME280;19224;52.462;16.898;2024-03-22T09:39:48;100339.12;;;12.61;100.00
32873;BME280;19224;52.462;16.898;2024-03-22T09:42:18;100331.90;;;12.62;100.00
32873;BME280;19224;52.462;16.898;2024-03-22T09:44:50;100342.61;;;12.63;100.00
32873;BME280;19224;52.462;16.898;2024-03-22T09:47:21;100338.08;;;12.72;100.00
32873;BME280;19224;52.462;16.898;2024-03-22T09:49:51;100332.84;;;12.69;100.00
32873;BME280;19224;52.462;16.898;2024-03-22T09:52:23;100326.48;;;12.96;100.00
32873;BME280;19224;52.462;16.898;2024-03-22T09:54:54;100327.34;;;12.96;100.00
32873;BME280;19224;52.462;16.898;2024-03-22T09:57:25;100323.21;;;12.72;100.00
32873;BME280;19224;52.462;16.898;2024-03-22T09:59:57;100316.92;;;13.06;100.00
32873;BME280;19224;52.462;16.898;2024-03-22T10:02:27;100316.56;;;13.12;99.53
32873;BME280;19224;52.462;16.898;2024-03-22T10:04:59;100319.38;;;13.34;99.18
32873;BME280;19224;52.462;16.898;2024-03-22T10:07:32;100315.42;;;13.24;98.16
32873;BME280;19224;52.462;16.898;2024-03-22T10:10:02;100298.20;;;13.49;97.84
32873;BME280;19224;52.462;16.898;2024-03-22T10:12:32;100295.95;;;13.57;97.13
32873;BME280;19224;52.462;16.898;2024-03-22T10:15:05;100300.22;;;13.61;95.94
32873;BME280;19224;52.462;16.898;2024-03-22T10:17:40;100292.93;;;13.55;95.86
32873;BME280;19224;52.462;16.898;2024-03-22T10:20:13;100291.38;;;13.42;96.62
32873;BME280;19224;52.462;16.898;2024-03-22T10:22:49;100286.61;;;13.47;97.10
32873;BME280;19224;52.462;16.898;2024-03-22T10:25:19;100283.01;;;13.47;96.82
32873;BME280;19224;52.462;16.898;2024-03-22T10:27:50;100271.89;;;13.29;97.20
32873;BME280;19224;52.462;16.898;2024-03-22T10:30:24;100275.91;;;13.37;97.61
32873;BME280;19224;52.462;16.898;2024-03-22T10:32:54;100273.80;;;13.11;97.63
32873;BME280;19224;52.462;16.898;2024-03-22T10:35:25;100269.77;;;13.18;98.05
32873;BME280;19224;52.462;16.898;2024-03-22T10:37:56;100267.34;;;13.29;97.98
32873;BME280;19224;52.462;16.898;2024-03-22T10:40:31;100261.93;;;13.29;97.50
32873;BME280;19224;52.462;16.898;2024-03-22T10:43:02;100258.37;;;13.29;97.04
32873;BME280;19224;52.462;16.898;2024-03-22T10:45:32;100255.95;;;13.31;97.80
32873;BME280;19224;52.462;16.898;2024-03-22T10:48:08;100248.77;;;13.23;98.33
32873;BME280;19224;52.462;16.898;2024-03-22T10:50:40;100248.91;;;13.20;99.54
32873;BME280;19224;52.462;16.898;2024-03-22T10:53:22;100242.61;;;13.28;99.20
32873;BME280;19224;52.462;16.898;2024-03-22T10:55:54;100240.61;;;13.47;98.35
32873;BME280;19224;52.462;16.898;2024-03-22T10:58:28;100232.43;;;13.56;97.93
32873;BME280;19224;52.462;16.898;2024-03-22T11:00:58;100228.45;;;13.54;96.82
32873;BME280;19224;52.462;16.898;2024-03-22T11:03:30;100224.22;;;13.73;95.22
32873;BME280;19224;52.462;16.898;2024-03-22T11:06:02;100225.20;;;13.56;95.94
32873;BME280;19224;52.462;16.898;2024-03-22T11:08:32;100225.59;;;13.42;95.94
32873;BME280;19224;52.462;16.898;2024-03-22T11:11:11;100231.45;;;13.34;96.97
32873;BME280;19224;52.462;16.898;2024-03-22T11:13:41;100226.89;;;13.19;98.46
32873;BME280;19224;52.462;16.898;2024-03-22T11:16:15;100218.95;;;13.16;100.00
32873;BME280;19224;52.462;16.898;2024-03-22T11:18:45;100219.40;;;13.09;100.00
32873;BME280;19224;52.462;16.898;2024-03-22T11:21:17;100220.88;;;12.90;100.00
32873;BME280;19224;52.462;16.898;2024-03-22T11:23:48;100218.70;;;12.88;100.00
32873;BME280;19224;52.462;16.898;2024-03-22T11:26:20;100219.59;;;12.97;100.00
32873;BME280;19224;52.462;16.898;2024-03-22T11:28:51;100216.77;;;13.07;100.00
32873;BME280;19224;52.462;16.898;2024-03-22T11:31:23;100205.19;;;12.88;100.00
32873;BME280;19224;52.462;16.898;2024-03-22T11:33:55;100197.69;;;12.78;100.00
32873;BME280;19224;52.462;16.898;2024-03-22T11:36:29;100193.59;;;12.86;100.00
32873;BME280;19224;52.462;16.898;2024-03-22T11:39:00;100171.97;;;12.86;100.00
32873;BME280;19224;52.462;16.898;2024-03-22T11:41:32;100174.65;;;13.03;100.00
32873;BME280;19224;52.462;16.898;2024-03-22T11:44:04;100175.43;;;13.05;100.00
32873;BME280;19224;52.462;16.898;2024-03-22T11:46:34;100158.55;;;13.24;100.00
32873;BME280;19224;52.462;16.898;2024-03-22T11:49:07;100156.50;;;13.43;100.00
32873;BME280;19224;52.462;16.898;2024-03-22T11:51:38;100172.34;;;13.42;100.00
32873;BME280;19224;52.462;16.898;2024-03-22T11:54:08;100159.89;;;13.40;100.00
32873;BME280;19224;52.462;16.898;2024-03-22T11:56:40;100135.63;;;13.38;100.00
32873;BME280;19224;52.462;16.898;2024-03-22T11:59:11;100139.30;;;13.37;100.00
32873;BME280;19224;52.462;16.898;2024-03-22T12:01:42;100143.34;;;13.37;100.00
32873;BME280;19224;52.462;16.898;2024-03-22T12:04:13;100144.90;;;13.41;100.00
32873;BME280;19224;52.462;16.898;2024-03-22T12:06:46;100133.11;;;13.35;100.00
32873;BME280;19224;52.462;16.898;2024-03-22T12:09:17;100127.00;;;13.32;100.00
32873;BME280;19224;52.462;16.898;2024-03-22T12:11:47;100122.18;;;13.14;100.00
32873;BME280;19224;52.462;16.898;2024-03-22T12:14:17;100117.67;;;13.22;99.84
32873;BME280;19224;52.462;16.898;2024-03-22T12:16:48;100122.91;;;13.09;100.00
32873;BME280;19224;52.462;16.898;2024-03-22T12:19:18;100114.64;;;13.12;100.00
32873;BME280;19224;52.462;16.898;2024-03-22T12:21:48;100106.55;;;13.19;100.00
32873;BME280;19224;52.462;16.898;2024-03-22T12:24:18;100106.16;;;13.18;100.00
32873;BME280;19224;52.462;16.898;2024-03-22T12:26:49;100110.98;;;13.13;100.00
32873;BME280;19224;52.462;16.898;2024-03-22T12:29:19;100106.40;;;13.29;100.00
32873;BME280;19224;52.462;16.898;2024-03-22T12:31:50;100099.62;;;13.22;100.00
32873;BME280;19224;52.462;16.898;2024-03-22T12:34:21;100095.65;;;13.21;100.00
32873;BME280;19224;52.462;16.898;2024-03-22T12:36:51;100093.92;;;13.27;100.00
32873;BME280;19224;52.462;16.898;2024-03-22T12:39:21;100090.09;;;13.31;100.00
32873;BME280;19224;52.462;16.898;2024-03-22T12:41:52;100086.04;;;13.38;100.00
32873;BME280;19224;52.462;16.898;2024-03-22T12:44:23;100080.63;;;13.38;100.00
32873;BME280;19224;52.462;16.898;2024-03-22T12:46:54;100069.15;;;13.34;100.00
32873;BME280;19224;52.462;16.898;2024-03-22T12:49:25;100067.10;;;13.31;100.00
32873;BME280;19224;52.462;16.898;2024-03-22T12:51:56;100064.47;;;13.29;100.00
32873;BME280;19224;52.462;16.898;2024-03-22T12:54:26;100058.09;;;13.23;100.00